createdAt,value
2022-12-03T00:02:25.701Z,-4.39
2022-12-03T00:07:28.591Z,-4.34
2022-12-03T00:12:31.387Z,-4.33
2022-12-03T00:17:34.174Z,-4.35
2022-12-03T00:22:36.962Z,-4.37
2022-12-03T00:27:39.978Z,-4.38
2022-12-03T00:32:42.750Z,-4.34
2022-12-03T00:37:45.505Z,-4.30
2022-12-03T00:42:48.278Z,-4.29
2022-12-03T00:47:51.020Z,-4.30
2022-12-03T00:52:53.832Z,-4.32
2022-12-03T00:57:56.561Z,-4.26
2022-12-03T01:02:59.420Z,-4.21
2022-12-03T01:08:02.290Z,-4.24
2022-12-03T01:13:05.163Z,-4.29
2022-12-03T01:18:07.926Z,-4.30
2022-12-03T01:23:10.716Z,-4.26
2022-12-03T01:28:13.528Z,-4.24
2022-12-03T01:33:16.294Z,-4.26
2022-12-03T01:38:19.168Z,-4.27
2022-12-03T01:43:21.924Z,-4.22
2022-12-03T01:48:24.746Z,-4.21
2022-12-03T01:53:27.556Z,-4.23
2022-12-03T01:58:30.735Z,-4.23
2022-12-03T02:03:33.443Z,-4.25
2022-12-03T02:08:39.167Z,-4.20
2022-12-03T02:13:43.015Z,-4.13
2022-12-03T02:18:46.053Z,-4.09
2022-12-03T02:24:07.234Z,-4.09
2022-12-03T02:29:09.975Z,-4.09
2022-12-03T02:34:43.255Z,-4.06
2022-12-03T02:39:51.597Z,-4.06
2022-12-03T02:44:56.124Z,-4.08
2022-12-03T02:50:01.807Z,-4.05
2022-12-03T02:55:07.125Z,-4.01
2022-12-03T03:00:11.265Z,-3.98
2022-12-03T03:05:15.751Z,-4.02
2022-12-03T03:10:21.681Z,-4.07
2022-12-03T03:15:25.546Z,-4.07
2022-12-03T03:20:28.365Z,-4.04
2022-12-03T03:25:31.216Z,-4.00
2022-12-03T03:30:36.272Z,-4.02
2022-12-03T03:35:39.855Z,-4.00
2022-12-03T03:40:43.375Z,-3.94
2022-12-03T03:45:46.855Z,-3.92
2022-12-03T03:50:51.442Z,-3.94
2022-12-03T03:55:54.208Z,-3.94
2022-12-03T04:00:57.156Z,-3.95
2022-12-03T04:05:59.962Z,-3.97
2022-12-03T04:11:21.222Z,-4.00
2022-12-03T04:16:23.983Z,-4.03
2022-12-03T04:21:53.024Z,-3.99
2022-12-03T04:27:14.538Z,-3.90
2022-12-03T04:32:35.747Z,-3.87
2022-12-03T04:37:38.481Z,-3.86
2022-12-03T04:42:41.199Z,-3.86
2022-12-03T04:47:43.971Z,-3.80
2022-12-03T04:52:46.737Z,-3.78
2022-12-03T04:57:49.476Z,-3.77
2022-12-03T05:02:52.333Z,-3.79
2022-12-03T05:07:55.245Z,-3.81
2022-12-03T05:12:57.984Z,-3.80
2022-12-03T05:18:00.783Z,-3.73
2022-12-03T05:23:03.527Z,-3.64
2022-12-03T05:28:06.915Z,-3.64
2022-12-03T05:33:09.702Z,-3.64
2022-12-03T05:38:12.478Z,-3.61
2022-12-03T05:43:15.388Z,-3.60
2022-12-03T05:48:18.397Z,-3.66
2022-12-03T05:53:21.213Z,-3.71
2022-12-03T05:58:23.990Z,-3.67
2022-12-03T06:03:27.318Z,-3.61
2022-12-03T06:08:30.322Z,-3.59
2022-12-03T06:13:33.058Z,-3.57
2022-12-03T06:18:35.809Z,-3.58
2022-12-03T06:23:44.833Z,-3.59
2022-12-03T06:28:49.459Z,-3.58
2022-12-03T06:33:52.190Z,-3.53
2022-12-03T06:38:55.082Z,-3.50
2022-12-03T06:43:58.029Z,-3.49
2022-12-03T06:49:00.847Z,-3.51
2022-12-03T06:54:04.682Z,-3.50
2022-12-03T06:59:07.479Z,-3.44
2022-12-03T07:04:10.325Z,-3.36
2022-12-03T07:09:13.110Z,-3.31
2022-12-03T07:14:15.915Z,-3.28
2022-12-03T07:19:18.668Z,-3.28
2022-12-03T07:24:21.416Z,-3.23
2022-12-03T07:29:24.549Z,-3.19
2022-12-03T07:34:27.317Z,-3.17
2022-12-03T07:39:30.315Z,-3.16
2022-12-03T07:44:33.089Z,-3.19
2022-12-03T07:49:35.861Z,-3.19
2022-12-03T07:54:38.650Z,-3.16
2022-12-03T07:59:41.437Z,-3.15
2022-12-03T08:04:44.170Z,-3.16
2022-12-03T08:09:46.970Z,-3.17
2022-12-03T08:14:49.952Z,-3.19
2022-12-03T08:19:53.403Z,-3.14
2022-12-03T08:24:56.312Z,-3.05
2022-12-03T08:30:04.589Z,-3.00
2022-12-03T08:35:23.896Z,-2.98
2022-12-03T08:40:40.590Z,-2.98
2022-12-03T08:45:44.200Z,-2.92
2022-12-03T08:50:47.047Z,-2.85
2022-12-03T08:55:55.383Z,-2.79
2022-12-03T09:01:10.597Z,-2.78
2022-12-03T09:06:13.392Z,-2.77
2022-12-03T09:11:16.283Z,-2.71
2022-12-03T09:16:20.064Z,-2.60
2022-12-03T09:21:22.851Z,-2.58
2022-12-03T09:26:27.208Z,-2.61
2022-12-03T09:31:30.049Z,-2.67
2022-12-03T09:36:33.181Z,-2.65
2022-12-03T09:41:36.269Z,-2.62
2022-12-03T09:46:40.682Z,-2.64
2022-12-03T09:51:44.390Z,-2.69
2022-12-03T09:56:47.142Z,-2.66
2022-12-03T10:01:50.240Z,-2.64
2022-12-03T10:06:53.112Z,-2.68
2022-12-03T10:11:59.119Z,-2.72
2022-12-03T10:17:02.051Z,-2.71
2022-12-03T10:22:05.275Z,-2.68
2022-12-03T10:27:30.099Z,-2.67
2022-12-03T10:32:44.843Z,-2.71
2022-12-03T10:38:16.513Z,-2.76
2022-12-03T10:43:19.252Z,-2.73
2022-12-03T10:48:30.780Z,-2.68
2022-12-03T10:53:36.240Z,-2.68
2022-12-03T10:58:40.389Z,-2.67
2022-12-03T11:03:43.287Z,-2.66
2022-12-03T11:08:54.730Z,-2.60
2022-12-03T11:14:01.875Z,-2.52
2022-12-03T11:19:14.053Z,-2.54
2022-12-03T11:24:20.149Z,-2.64
2022-12-03T11:29:44.592Z,-2.75
2022-12-03T11:34:47.503Z,-2.80
2022-12-03T11:39:53.439Z,-2.76
2022-12-03T11:45:05.691Z,-2.74
2022-12-03T11:50:17.831Z,-2.82
2022-12-03T11:55:40.927Z,-2.95
2022-12-03T12:01:01.719Z,-3.04
2022-12-03T12:06:08.826Z,-3.04
2022-12-03T12:11:25.824Z,-3.04
2022-12-03T12:16:51.785Z,-3.03
2022-12-03T12:21:56.571Z,-3.00
2022-12-03T12:27:06.708Z,-2.91
2022-12-03T12:32:09.482Z,-2.84
2022-12-03T12:37:23.776Z,-2.83
2022-12-03T12:42:35.883Z,-2.90
2022-12-03T12:47:40.237Z,-2.95
2022-12-03T12:52:58.364Z,-2.95
2022-12-03T12:58:07.551Z,-2.87
2022-12-03T13:03:12.011Z,-2.76
2022-12-03T13:08:23.893Z,-2.58
2022-12-03T13:13:44.325Z,-2.24
2022-12-03T13:18:49.690Z,-1.91
2022-12-03T13:23:55.474Z,-1.65
2022-12-03T13:28:59.764Z,-1.60
2022-12-03T13:34:02.621Z,-1.62
2022-12-03T13:39:35.128Z,-1.75
2022-12-03T13:44:49.827Z,-2.01
2022-12-03T13:49:57.121Z,-2.23
2022-12-03T13:55:03.789Z,-2.42
2022-12-03T14:00:07.431Z,-2.58
2022-12-03T14:05:12.955Z,-2.67
2022-12-03T14:10:16.475Z,-2.69
2022-12-03T14:15:19.232Z,-2.75
2022-12-03T14:20:22.031Z,-2.85
2022-12-03T14:25:24.782Z,-2.97
2022-12-03T14:30:27.521Z,-3.02
2022-12-03T14:35:30.281Z,-3.05
2022-12-03T14:40:33.016Z,-3.07
2022-12-03T14:45:35.846Z,-3.14
2022-12-03T14:50:38.632Z,-3.20
2022-12-03T14:55:41.374Z,-3.27
2022-12-03T15:00:44.113Z,-3.31
2022-12-03T15:05:46.862Z,-3.25
2022-12-03T15:10:49.602Z,-3.20
2022-12-03T15:15:52.347Z,-3.19
2022-12-03T15:20:55.031Z,-3.25
2022-12-03T15:25:57.776Z,-3.24
2022-12-03T15:31:00.870Z,-3.20
2022-12-03T15:36:03.903Z,-3.17
2022-12-03T15:41:26.918Z,-3.18
2022-12-03T15:46:31.525Z,-3.20
2022-12-03T15:51:34.481Z,-3.24
2022-12-03T15:56:37.838Z,-3.23
2022-12-03T16:01:40.756Z,-3.17
2022-12-03T16:06:43.555Z,-3.13
2022-12-03T16:11:46.261Z,-3.13
2022-12-03T16:16:49.202Z,-3.13
2022-12-03T16:21:52.001Z,-3.15
2022-12-03T16:26:54.861Z,-3.11
2022-12-03T16:31:57.640Z,-3.05
2022-12-03T16:37:00.479Z,-3.02
2022-12-03T16:42:05.337Z,-3.02
2022-12-03T16:47:09.809Z,-3.05
2022-12-03T16:52:12.543Z,-3.03
2022-12-03T16:57:15.733Z,-2.95
2022-12-03T17:02:18.394Z,-2.88
2022-12-03T17:07:21.236Z,-2.87
2022-12-03T17:12:25.454Z,-2.92
2022-12-03T17:17:29.379Z,-2.95
2022-12-03T17:22:32.151Z,-2.93
2022-12-03T17:27:35.066Z,-2.86
2022-12-03T17:32:37.867Z,-2.81
2022-12-03T17:37:40.606Z,-2.75
2022-12-03T17:42:43.528Z,-2.72
2022-12-03T17:47:46.250Z,-2.67
2022-12-03T17:52:48.991Z,-2.60
2022-12-03T17:57:51.716Z,-2.57
2022-12-03T18:02:54.443Z,-2.57
2022-12-03T18:07:57.582Z,-2.61
2022-12-03T18:13:02.186Z,-2.56
2022-12-03T18:18:05.403Z,-2.50
2022-12-03T18:23:08.169Z,-2.47
2022-12-03T18:28:10.906Z,-2.45
2022-12-03T18:33:15.641Z,-2.48
2022-12-03T18:38:18.700Z,-2.51
2022-12-03T18:43:21.582Z,-2.47
2022-12-03T18:48:25.277Z,-2.40
2022-12-03T18:53:27.999Z,-2.38
2022-12-03T18:58:30.936Z,-2.37
2022-12-03T19:03:33.971Z,-2.37
2022-12-03T19:08:36.809Z,-2.33
2022-12-03T19:13:40.887Z,-2.30
2022-12-03T19:18:44.263Z,-2.32
2022-12-03T19:24:09.906Z,-2.35
2022-12-03T19:29:10.784Z,-2.37
2022-12-03T19:34:13.480Z,-2.38
2022-12-03T19:39:16.381Z,-2.34
2022-12-03T19:44:20.414Z,-2.30
2022-12-03T19:49:24.638Z,-2.26
2022-12-03T19:54:27.415Z,-2.23
2022-12-03T19:59:30.182Z,-2.21
2022-12-03T20:04:32.973Z,-2.20
2022-12-03T20:09:35.992Z,-2.14
2022-12-03T20:14:38.771Z,-2.06
2022-12-03T20:19:41.571Z,-1.97
2022-12-03T20:24:44.638Z,-1.96
2022-12-03T20:29:47.554Z,-2.00
2022-12-03T20:34:50.684Z,-2.03
2022-12-03T20:39:54.272Z,-2.04
2022-12-03T20:44:57.235Z,-1.96
2022-12-03T20:50:00.090Z,-1.85
2022-12-03T20:55:03.239Z,-1.75
2022-12-03T21:00:06.576Z,-1.74
2022-12-03T21:05:09.709Z,-1.74
2022-12-03T21:10:32.515Z,-1.75
2022-12-03T21:15:35.288Z,-1.70
2022-12-03T21:20:47.018Z,-1.67
2022-12-03T21:25:49.971Z,-1.67
2022-12-03T21:30:52.889Z,-1.71
2022-12-03T21:35:56.691Z,-1.72
2022-12-03T21:41:01.252Z,-1.68
2022-12-03T21:47:12.689Z,-1.64
2022-12-03T21:51:29.850Z,-1.64
2022-12-03T21:56:33.432Z,-1.63
2022-12-03T22:01:36.517Z,-1.61
2022-12-03T22:06:39.466Z,-1.54
2022-12-03T22:11:42.420Z,-1.51
2022-12-03T22:16:45.458Z,-1.53
2022-12-03T22:21:48.290Z,-1.56
2022-12-03T22:26:53.582Z,-1.54
2022-12-03T22:31:56.410Z,-1.48
2022-12-03T22:36:59.175Z,-1.46
2022-12-03T22:42:02.017Z,-1.45
2022-12-03T22:47:05.789Z,-1.45
2022-12-03T22:52:08.521Z,-1.41
2022-12-03T22:57:11.697Z,-1.34
2022-12-03T23:02:14.325Z,-1.30
2022-12-03T23:07:17.191Z,-1.29
2022-12-03T23:12:19.940Z,-1.29
2022-12-03T23:17:22.738Z,-1.26
2022-12-03T23:22:25.451Z,-1.21
2022-12-03T23:27:28.244Z,-1.19
2022-12-03T23:32:30.934Z,-1.20
2022-12-03T23:37:33.690Z,-1.18
2022-12-03T23:42:36.528Z,-1.13
2022-12-03T23:47:39.373Z,-1.07
2022-12-03T23:52:42.276Z,-1.07
2022-12-03T23:57:45.077Z,-1.05
